sensor_id;sensor_type;location;lat;lon;timestamp;temperature;humidity
46816;DHT22;32787;53.316;8.670;2022-08-03T00:01:22;18.50;87.80
46816;DHT22;32787;53.316;8.670;2022-08-03T00:03:48;18.50;87.60
46816;DHT22;32787;53.316;8.670;2022-08-03T00:06:14;18.60;87.50
46816;DHT22;32787;53.316;8.670;2022-08-03T00:08:39;18.50;87.40
46816;DHT22;32787;53.316;8.670;2022-08-03T00:11:05;18.40;87.70
46816;DHT22;32787;53.316;8.670;2022-08-03T00:13:32;18.40;87.90
46816;DHT22;32787;53.316;8.670;2022-08-03T00:15:58;18.30;88.10
46816;DHT22;32787;53.316;8.670;2022-08-03T00:18:23;18.20;88.40
46816;DHT22;32787;53.316;8.670;2022-08-03T00:20:49;18.10;88.60
46816;DHT22;32787;53.316;8.670;2022-08-03T00:23:15;18.00;88.80
46816;DHT22;32787;53.316;8.670;2022-08-03T00:25:41;18.10;88.80
46816;DHT22;32787;53.316;8.670;2022-08-03T00:28:07;18.10;88.70
46816;DHT22;32787;53.316;8.670;2022-08-03T00:30:33;18.00;88.70
46816;DHT22;32787;53.316;8.670;2022-08-03T00:32:59;18.10;88.60
46816;DHT22;32787;53.316;8.670;2022-08-03T00:35:25;18.10;88.50
46816;DHT22;32787;53.316;8.670;2022-08-03T00:37:51;18.20;88.20
46816;DHT22;32787;53.316;8.670;2022-08-03T00:40:18;18.20;88.10
46816;DHT22;32787;53.316;8.670;2022-08-03T00:42:49;18.30;88.10
46816;DHT22;32787;53.316;8.670;2022-08-03T00:45:20;18.30;87.80
46816;DHT22;32787;53.316;8.670;2022-08-03T00:47:46;18.30;87.70
46816;DHT22;32787;53.316;8.670;2022-08-03T00:50:12;18.30;87.60
46816;DHT22;32787;53.316;8.670;2022-08-03T00:52:38;18.40;87.50
46816;DHT22;32787;53.316;8.670;2022-08-03T00:55:05;18.30;87.30
46816;DHT22;32787;53.316;8.670;2022-08-03T00:57:31;18.30;87.40
46816;DHT22;32787;53.316;8.670;2022-08-03T00:59:58;18.20;87.70
46816;DHT22;32787;53.316;8.670;2022-08-03T01:02:27;18.10;87.40
46816;DHT22;32787;53.316;8.670;2022-08-03T01:04:55;17.90;87.80
46816;DHT22;32787;53.316;8.670;2022-08-03T01:10:51;18.00;87.90
46816;DHT22;32787;53.316;8.670;2022-08-03T01:13:27;18.00;87.70
46816;DHT22;32787;53.316;8.670;2022-08-03T01:18:44;18.00;87.80
46816;DHT22;32787;53.316;8.670;2022-08-03T01:21:23;17.90;87.70
46816;DHT22;32787;53.316;8.670;2022-08-03T01:27:11;17.60;87.80
46816;DHT22;32787;53.316;8.670;2022-08-03T01:29:56;17.70;88.00
46816;DHT22;32787;53.316;8.670;2022-08-03T01:32:37;17.70;87.80
46816;DHT22;32787;53.316;8.670;2022-08-03T01:35:09;17.60;87.80
46816;DHT22;32787;53.316;8.670;2022-08-03T01:37:46;17.60;87.90
46816;DHT22;32787;53.316;8.670;2022-08-03T01:40:15;17.50;87.90
46816;DHT22;32787;53.316;8.670;2022-08-03T01:42:43;17.60;87.90
46816;DHT22;32787;53.316;8.670;2022-08-03T01:45:13;17.60;87.60
46816;DHT22;32787;53.316;8.670;2022-08-03T01:47:41;17.50;88.00
46816;DHT22;32787;53.316;8.670;2022-08-03T01:50:09;17.50;88.10
46816;DHT22;32787;53.316;8.670;2022-08-03T01:52:41;17.50;87.50
46816;DHT22;32787;53.316;8.670;2022-08-03T01:55:09;17.40;87.70
46816;DHT22;32787;53.316;8.670;2022-08-03T01:57:37;17.30;88.20
46816;DHT22;32787;53.316;8.670;2022-08-03T02:00:04;17.20;88.30
46816;DHT22;32787;53.316;8.670;2022-08-03T02:02:31;17.20;88.50
46816;DHT22;32787;53.316;8.670;2022-08-03T02:05:00;17.10;88.60
46816;DHT22;32787;53.316;8.670;2022-08-03T02:07:26;17.10;88.60
46816;DHT22;32787;53.316;8.670;2022-08-03T02:09:54;17.10;88.50
46816;DHT22;32787;53.316;8.670;2022-08-03T02:12:22;17.00;88.60
46816;DHT22;32787;53.316;8.670;2022-08-03T02:14:49;16.90;88.60
46816;DHT22;32787;53.316;8.670;2022-08-03T02:17:15;16.80;88.70
46816;DHT22;32787;53.316;8.670;2022-08-03T02:19:42;16.80;88.90
46816;DHT22;32787;53.316;8.670;2022-08-03T02:22:10;16.70;89.10
46816;DHT22;32787;53.316;8.670;2022-08-03T02:24:36;16.60;89.00
46816;DHT22;32787;53.316;8.670;2022-08-03T02:27:06;16.50;89.10
46816;DHT22;32787;53.316;8.670;2022-08-03T02:29:35;16.50;89.30
46816;DHT22;32787;53.316;8.670;2022-08-03T02:32:02;16.50;89.40
46816;DHT22;32787;53.316;8.670;2022-08-03T02:34:30;16.40;89.50
46816;DHT22;32787;53.316;8.670;2022-08-03T02:36:58;16.40;89.50
46816;DHT22;32787;53.316;8.670;2022-08-03T02:39:27;16.40;89.50
46816;DHT22;32787;53.316;8.670;2022-08-03T02:41:56;16.30;89.60
46816;DHT22;32787;53.316;8.670;2022-08-03T02:44:27;16.30;89.70
46816;DHT22;32787;53.316;8.670;2022-08-03T02:46:56;16.40;89.60
46816;DHT22;32787;53.316;8.670;2022-08-03T02:49:24;16.40;89.50
46816;DHT22;32787;53.316;8.670;2022-08-03T02:51:51;16.50;89.30
46816;DHT22;32787;53.316;8.670;2022-08-03T02:54:21;16.50;89.10
46816;DHT22;32787;53.316;8.670;2022-08-03T02:56:47;16.40;89.20
46816;DHT22;32787;53.316;8.670;2022-08-03T02:59:16;16.40;89.40
46816;DHT22;32787;53.316;8.670;2022-08-03T03:01:43;16.40;89.30
46816;DHT22;32787;53.316;8.670;2022-08-03T03:04:10;16.40;89.20
46816;DHT22;32787;53.316;8.670;2022-08-03T03:06:37;16.30;89.30
46816;DHT22;32787;53.316;8.670;2022-08-03T03:09:03;16.30;89.40
46816;DHT22;32787;53.316;8.670;2022-08-03T03:11:29;16.40;89.10
46816;DHT22;32787;53.316;8.670;2022-08-03T03:13:56;16.30;89.20
46816;DHT22;32787;53.316;8.670;2022-08-03T03:16:22;16.20;89.40
46816;DHT22;32787;53.316;8.670;2022-08-03T03:18:50;16.10;89.50
46816;DHT22;32787;53.316;8.670;2022-08-03T03:21:18;16.20;89.50
46816;DHT22;32787;53.316;8.670;2022-08-03T03:23:44;16.10;89.60
46816;DHT22;32787;53.316;8.670;2022-08-03T03:26:13;16.20;89.60
46816;DHT22;32787;53.316;8.670;2022-08-03T03:28:39;16.20;89.60
46816;DHT22;32787;53.316;8.670;2022-08-03T03:31:06;16.20;89.30
46816;DHT22;32787;53.316;8.670;2022-08-03T03:33:33;16.10;89.30
46816;DHT22;32787;53.316;8.670;2022-08-03T03:35:59;16.10;89.40
46816;DHT22;32787;53.316;8.670;2022-08-03T03:38:25;16.20;89.20
46816;DHT22;32787;53.316;8.670;2022-08-03T03:40:51;16.20;89.20
46816;DHT22;32787;53.316;8.670;2022-08-03T03:43:16;16.10;89.30
46816;DHT22;32787;53.316;8.670;2022-08-03T03:45:46;16.10;89.30
46816;DHT22;32787;53.316;8.670;2022-08-03T03:48:12;16.10;89.20
46816;DHT22;32787;53.316;8.670;2022-08-03T03:50:38;16.10;89.20
46816;DHT22;32787;53.316;8.670;2022-08-03T03:53:11;16.20;88.90
46816;DHT22;32787;53.316;8.670;2022-08-03T03:55:37;16.20;88.90
46816;DHT22;32787;53.316;8.670;2022-08-03T03:58:04;16.10;88.90
46816;DHT22;32787;53.316;8.670;2022-08-03T04:00:30;16.20;89.00
46816;DHT22;32787;53.316;8.670;2022-08-03T04:02:56;16.20;88.70
46816;DHT22;32787;53.316;8.670;2022-08-03T04:05:22;16.30;88.80
46816;DHT22;32787;53.316;8.670;2022-08-03T04:08:12;16.50;88.30
46816;DHT22;32787;53.316;8.670;2022-08-03T04:13:49;16.30;88.60
46816;DHT22;32787;53.316;8.670;2022-08-03T04:16:18;16.30;88.70
46816;DHT22;32787;53.316;8.670;2022-08-03T04:18:48;16.20;88.90
46816;DHT22;32787;53.316;8.670;2022-08-03T04:21:17;16.10;88.80
46816;DHT22;32787;53.316;8.670;2022-08-03T04:23:46;16.20;88.90
46816;DHT22;32787;53.316;8.670;2022-08-03T04:26:14;16.10;88.80
46816;DHT22;32787;53.316;8.670;2022-08-03T04:28:43;16.10;89.20
46816;DHT22;32787;53.316;8.670;2022-08-03T04:31:11;16.10;89.10
46816;DHT22;32787;53.316;8.670;2022-08-03T04:33:38;16.20;89.00
46816;DHT22;32787;53.316;8.670;2022-08-03T04:36:07;16.20;88.90
46816;DHT22;32787;53.316;8.670;2022-08-03T04:38:39;16.20;89.20
46816;DHT22;32787;53.316;8.670;2022-08-03T04:41:06;16.20;89.10
46816;DHT22;32787;53.316;8.670;2022-08-03T04:43:32;16.30;89.00
46816;DHT22;32787;53.316;8.670;2022-08-03T04:45:59;16.30;89.00
46816;DHT22;32787;53.316;8.670;2022-08-03T04:48:25;16.60;88.50
46816;DHT22;32787;53.316;8.670;2022-08-03T04:50:52;16.60;88.40
46816;DHT22;32787;53.316;8.670;2022-08-03T04:53:18;16.70;88.30
46816;DHT22;32787;53.316;8.670;2022-08-03T04:55:43;16.70;88.40
46816;DHT22;32787;53.316;8.670;2022-08-03T04:58:09;16.80;88.40
46816;DHT22;32787;53.316;8.670;2022-08-03T05:00:35;16.80;88.20
46816;DHT22;32787;53.316;8.670;2022-08-03T05:03:00;16.90;88.20
46816;DHT22;32787;53.316;8.670;2022-08-03T05:05:26;17.00;88.10
46816;DHT22;32787;53.316;8.670;2022-08-03T05:07:52;17.10;88.00
46816;DHT22;32787;53.316;8.670;2022-08-03T05:10:17;17.20;87.70
46816;DHT22;32787;53.316;8.670;2022-08-03T05:12:45;17.20;87.60
46816;DHT22;32787;53.316;8.670;2022-08-03T05:15:11;17.30;87.70
46816;DHT22;32787;53.316;8.670;2022-08-03T05:17:37;17.40;87.60
46816;DHT22;32787;53.316;8.670;2022-08-03T05:20:03;17.50;87.50
46816;DHT22;32787;53.316;8.670;2022-08-03T05:22:29;17.70;87.30
46816;DHT22;32787;53.316;8.670;2022-08-03T05:24:55;17.80;86.80
46816;DHT22;32787;53.316;8.670;2022-08-03T05:27:20;17.80;86.60
46816;DHT22;32787;53.316;8.670;2022-08-03T05:29:47;17.90;86.60
46816;DHT22;32787;53.316;8.670;2022-08-03T05:32:14;18.10;86.40
46816;DHT22;32787;53.316;8.670;2022-08-03T05:34:39;18.10;86.10
46816;DHT22;32787;53.316;8.670;2022-08-03T05:37:05;18.30;85.80
46816;DHT22;32787;53.316;8.670;2022-08-03T05:39:32;18.30;85.60
46816;DHT22;32787;53.316;8.670;2022-08-03T05:41:57;18.40;85.50
46816;DHT22;32787;53.316;8.670;2022-08-03T05:44:23;18.50;85.00
46816;DHT22;32787;53.316;8.670;2022-08-03T05:46:50;18.70;84.60
46816;DHT22;32787;53.316;8.670;2022-08-03T05:49:16;18.80;84.30
46816;DHT22;32787;53.316;8.670;2022-08-03T05:51:41;19.00;83.90
46816;DHT22;32787;53.316;8.670;2022-08-03T05:54:07;19.00;83.80
46816;DHT22;32787;53.316;8.670;2022-08-03T05:56:32;19.20;83.60
46816;DHT22;32787;53.316;8.670;2022-08-03T05:58:58;19.30;83.60
46816;DHT22;32787;53.316;8.670;2022-08-03T06:01:24;19.40;83.50
46816;DHT22;32787;53.316;8.670;2022-08-03T06:03:50;19.50;83.20
46816;DHT22;32787;53.316;8.670;2022-08-03T06:06:16;19.80;82.60
46816;DHT22;32787;53.316;8.670;2022-08-03T06:08:43;20.00;82.10
46816;DHT22;32787;53.316;8.670;2022-08-03T06:11:09;20.30;81.40
46816;DHT22;32787;53.316;8.670;2022-08-03T06:13:35;20.30;81.50
46816;DHT22;32787;53.316;8.670;2022-08-03T06:16:01;20.30;81.10
46816;DHT22;32787;53.316;8.670;2022-08-03T06:18:27;20.50;80.50
46816;DHT22;32787;53.316;8.670;2022-08-03T06:20:53;20.70;79.90
46816;DHT22;32787;53.316;8.670;2022-08-03T06:23:19;20.80;79.60
46816;DHT22;32787;53.316;8.670;2022-08-03T06:25:45;20.90;79.40
46816;DHT22;32787;53.316;8.670;2022-08-03T06:28:11;20.90;79.30
46816;DHT22;32787;53.316;8.670;2022-08-03T06:30:39;21.00;79.50
46816;DHT22;32787;53.316;8.670;2022-08-03T06:33:04;21.00;79.10
46816;DHT22;32787;53.316;8.670;2022-08-03T06:35:30;21.10;79.40
46816;DHT22;32787;53.316;8.670;2022-08-03T06:37:55;21.10;79.30
46816;DHT22;32787;53.316;8.670;2022-08-03T06:40:22;21.30;78.70
46816;DHT22;32787;53.316;8.670;2022-08-03T06:43:01;21.60;78.20
46816;DHT22;32787;53.316;8.670;2022-08-03T06:45:27;21.70;77.80
46816;DHT22;32787;53.316;8.670;2022-08-03T06:48:07;21.70;78.00
46816;DHT22;32787;53.316;8.670;2022-08-03T06:50:35;21.80;77.80
46816;DHT22;32787;53.316;8.670;2022-08-03T06:53:02;21.80;77.40
46816;DHT22;32787;53.316;8.670;2022-08-03T06:55:28;21.80;77.80
46816;DHT22;32787;53.316;8.670;2022-08-03T06:57:54;21.80;77.80
46816;DHT22;32787;53.316;8.670;2022-08-03T07:00:20;22.00;77.60
46816;DHT22;32787;53.316;8.670;2022-08-03T07:02:46;21.90;77.80
46816;DHT22;32787;53.316;8.670;2022-08-03T07:05:12;22.20;77.50
46816;DHT22;32787;53.316;8.670;2022-08-03T07:07:38;22.20;77.30
46816;DHT22;32787;53.316;8.670;2022-08-03T07:10:05;22.00;77.70
46816;DHT22;32787;53.316;8.670;2022-08-03T07:12:32;22.30;77.40
46816;DHT22;32787;53.316;8.670;2022-08-03T07:14:59;22.40;77.40
46816;DHT22;32787;53.316;8.670;2022-08-03T07:17:25;22.50;77.10
46816;DHT22;32787;53.316;8.670;2022-08-03T07:19:51;22.60;76.60
46816;DHT22;32787;53.316;8.670;2022-08-03T07:22:17;22.50;76.80
46816;DHT22;32787;53.316;8.670;2022-08-03T07:24:42;22.50;76.20
46816;DHT22;32787;53.316;8.670;2022-08-03T07:27:08;22.40;76.70
46816;DHT22;32787;53.316;8.670;2022-08-03T07:29:34;22.30;77.10
46816;DHT22;32787;53.316;8.670;2022-08-03T07:32:01;22.30;77.40
46816;DHT22;32787;53.316;8.670;2022-08-03T07:34:27;22.40;77.70
46816;DHT22;32787;53.316;8.670;2022-08-03T07:36:52;22.70;77.10
46816;DHT22;32787;53.316;8.670;2022-08-03T07:39:18;22.70;77.80
46816;DHT22;32787;53.316;8.670;2022-08-03T07:41:45;22.50;78.00
46816;DHT22;32787;53.316;8.670;2022-08-03T07:44:10;22.70;77.10
46816;DHT22;32787;53.316;8.670;2022-08-03T07:46:36;22.70;76.70
46816;DHT22;32787;53.316;8.670;2022-08-03T07:49:02;22.70;76.20
46816;DHT22;32787;53.316;8.670;2022-08-03T07:51:27;22.70;76.20
46816;DHT22;32787;53.316;8.670;2022-08-03T07:53:53;22.50;77.20
46816;DHT22;32787;53.316;8.670;2022-08-03T07:56:22;22.80;76.90
46816;DHT22;32787;53.316;8.670;2022-08-03T07:58:49;22.90;75.40
46816;DHT22;32787;53.316;8.670;2022-08-03T08:01:15;22.90;75.50
46816;DHT22;32787;53.316;8.670;2022-08-03T08:03:41;22.90;76.60
46816;DHT22;32787;53.316;8.670;2022-08-03T08:06:07;23.00;76.60
46816;DHT22;32787;53.316;8.670;2022-08-03T08:08:32;23.10;76.10
46816;DHT22;32787;53.316;8.670;2022-08-03T08:10:58;23.10;76.40
46816;DHT22;32787;53.316;8.670;2022-08-03T08:13:24;23.20;76.20
46816;DHT22;32787;53.316;8.670;2022-08-03T08:15:49;23.20;75.80
46816;DHT22;32787;53.316;8.670;2022-08-03T08:18:15;23.30;76.20
46816;DHT22;32787;53.316;8.670;2022-08-03T08:20:40;23.40;75.20
46816;DHT22;32787;53.316;8.670;2022-08-03T08:23:07;23.40;74.50
46816;DHT22;32787;53.316;8.670;2022-08-03T08:25:33;23.50;74.20
46816;DHT22;32787;53.316;8.670;2022-08-03T08:27:59;23.30;75.20
46816;DHT22;32787;53.316;8.670;2022-08-03T08:30:29;23.30;75.20
46816;DHT22;32787;53.316;8.670;2022-08-03T08:32:55;23.30;75.20
46816;DHT22;32787;53.316;8.670;2022-08-03T08:35:20;23.50;75.10
46816;DHT22;32787;53.316;8.670;2022-08-03T08:37:46;23.50;74.70
46816;DHT22;32787;53.316;8.670;2022-08-03T08:40:12;23.60;74.50
46816;DHT22;32787;53.316;8.670;2022-08-03T08:42:39;23.60;75.40
46816;DHT22;32787;53.316;8.670;2022-08-03T08:45:06;23.60;76.10
46816;DHT22;32787;53.316;8.670;2022-08-03T08:47:36;23.90;74.10
46816;DHT22;32787;53.316;8.670;2022-08-03T08:50:03;24.00;71.90
46816;DHT22;32787;53.316;8.670;2022-08-03T08:52:30;24.30;70.30
46816;DHT22;32787;53.316;8.670;2022-08-03T08:54:58;24.40;70.10
46816;DHT22;32787;53.316;8.670;2022-08-03T08:57:33;24.30;69.80
46816;DHT22;32787;53.316;8.670;2022-08-03T09:00:00;24.40;69.60
46816;DHT22;32787;53.316;8.670;2022-08-03T09:02:29;24.70;70.00
46816;DHT22;32787;53.316;8.670;2022-08-03T09:04:55;24.70;68.10
46816;DHT22;32787;53.316;8.670;2022-08-03T09:07:21;24.70;67.80
46816;DHT22;32787;53.316;8.670;2022-08-03T09:09:47;24.70;67.50
46816;DHT22;32787;53.316;8.670;2022-08-03T09:12:13;24.80;69.70
46816;DHT22;32787;53.316;8.670;2022-08-03T09:14:39;24.80;67.30
46816;DHT22;32787;53.316;8.670;2022-08-03T09:17:05;24.80;67.10
46816;DHT22;32787;53.316;8.670;2022-08-03T09:19:32;24.90;67.10
46816;DHT22;32787;53.316;8.670;2022-08-03T09:22:15;25.00;65.70
46816;DHT22;32787;53.316;8.670;2022-08-03T09:24:58;25.20;66.20
46816;DHT22;32787;53.316;8.670;2022-08-03T09:27:24;25.40;64.80
46816;DHT22;32787;53.316;8.670;2022-08-03T09:29:52;25.60;63.80
46816;DHT22;32787;53.316;8.670;2022-08-03T09:32:20;25.60;64.50
46816;DHT22;32787;53.316;8.670;2022-08-03T09:34:47;25.50;65.10
46816;DHT22;32787;53.316;8.670;2022-08-03T09:37:15;25.50;65.60
46816;DHT22;32787;53.316;8.670;2022-08-03T09:39:41;25.60;65.40
46816;DHT22;32787;53.316;8.670;2022-08-03T09:42:11;25.50;63.80
46816;DHT22;32787;53.316;8.670;2022-08-03T09:44:41;25.50;64.60
46816;DHT22;32787;53.316;8.670;2022-08-03T09:47:09;25.40;65.00
46816;DHT22;32787;53.316;8.670;2022-08-03T09:49:35;25.50;65.60
46816;DHT22;32787;53.316;8.670;2022-08-03T09:52:14;25.60;66.50
46816;DHT22;32787;53.316;8.670;2022-08-03T09:54:41;25.80;65.00
46816;DHT22;32787;53.316;8.670;2022-08-03T09:57:07;26.00;63.90
46816;DHT22;32787;53.316;8.670;2022-08-03T09:59:33;26.20;64.80
46816;DHT22;32787;53.316;8.670;2022-08-03T10:01:59;26.20;63.80
46816;DHT22;32787;53.316;8.670;2022-08-03T10:04:26;26.20;64.60
46816;DHT22;32787;53.316;8.670;2022-08-03T10:07:07;26.20;65.10
46816;DHT22;32787;53.316;8.670;2022-08-03T10:09:37;26.20;65.50
46816;DHT22;32787;53.316;8.670;2022-08-03T10:12:10;26.20;64.70
46816;DHT22;32787;53.316;8.670;2022-08-03T10:14:40;26.20;65.20
46816;DHT22;32787;53.316;8.670;2022-08-03T10:17:06;26.40;63.30
46816;DHT22;32787;53.316;8.670;2022-08-03T10:19:32;26.60;63.00
46816;DHT22;32787;53.316;8.670;2022-08-03T10:22:23;26.70;63.10
46816;DHT22;32787;53.316;8.670;2022-08-03T10:27:21;26.60;63.20
46816;DHT22;32787;53.316;8.670;2022-08-03T10:29:51;26.60;61.50
46816;DHT22;32787;53.316;8.670;2022-08-03T10:32:24;26.80;61.70
46816;DHT22;32787;53.316;8.670;2022-08-03T10:34:56;26.90;60.90
46816;DHT22;32787;53.316;8.670;2022-08-03T10:37:25;26.90;60.80
46816;DHT22;32787;53.316;8.670;2022-08-03T10:39:52;26.80;61.30
46816;DHT22;32787;53.316;8.670;2022-08-03T10:42:23;27.00;59.80
46816;DHT22;32787;53.316;8.670;2022-08-03T10:44:59;27.00;59.70
46816;DHT22;32787;53.316;8.670;2022-08-03T10:47:28;27.20;59.30
46816;DHT22;32787;53.316;8.670;2022-08-03T10:49:54;27.30;61.50
46816;DHT22;32787;53.316;8.670;2022-08-03T10:52:20;27.40;59.90
46816;DHT22;32787;53.316;8.670;2022-08-03T10:54:46;27.60;59.30
46816;DHT22;32787;53.316;8.670;2022-08-03T11:00:12;27.60;57.50
46816;DHT22;32787;53.316;8.670;2022-08-03T11:03:01;27.60;57.60
46816;DHT22;32787;53.316;8.670;2022-08-03T11:05:29;27.60;58.00
46816;DHT22;32787;53.316;8.670;2022-08-03T11:08:33;27.70;57.20
46816;DHT22;32787;53.316;8.670;2022-08-03T11:16:29;28.20;53.50
46816;DHT22;32787;53.316;8.670;2022-08-03T11:18:59;28.20;56.30
46816;DHT22;32787;53.316;8.670;2022-08-03T11:21:53;28.30;54.50
46816;DHT22;32787;53.316;8.670;2022-08-03T11:30:09;28.40;55.60
46816;DHT22;32787;53.316;8.670;2022-08-03T11:35:11;28.40;54.50
46816;DHT22;32787;53.316;8.670;2022-08-03T11:40:47;28.60;54.60
46816;DHT22;32787;53.316;8.670;2022-08-03T11:46:05;29.20;52.80
46816;DHT22;32787;53.316;8.670;2022-08-03T11:51:07;29.60;49.90
46816;DHT22;32787;53.316;8.670;2022-08-03T11:53:43;29.90;50.00
46816;DHT22;32787;53.316;8.670;2022-08-03T11:56:09;29.70;49.20
46816;DHT22;32787;53.316;8.670;2022-08-03T11:58:34;29.40;51.40
46816;DHT22;32787;53.316;8.670;2022-08-03T12:01:04;29.30;51.80
46816;DHT22;32787;53.316;8.670;2022-08-03T12:03:34;29.70;51.50
46816;DHT22;32787;53.316;8.670;2022-08-03T12:06:00;29.90;49.00
46816;DHT22;32787;53.316;8.670;2022-08-03T12:08:30;30.40;48.30
46816;DHT22;32787;53.316;8.670;2022-08-03T12:10:57;30.50;47.00
46816;DHT22;32787;53.316;8.670;2022-08-03T12:13:23;30.20;48.90
46816;DHT22;32787;53.316;8.670;2022-08-03T12:15:52;29.90;49.50
46816;DHT22;32787;53.316;8.670;2022-08-03T12:18:19;29.90;48.20
46816;DHT22;32787;53.316;8.670;2022-08-03T12:20:47;30.00;49.90
46816;DHT22;32787;53.316;8.670;2022-08-03T12:23:13;30.10;49.90
46816;DHT22;32787;53.316;8.670;2022-08-03T12:25:41;30.00;48.30
46816;DHT22;32787;53.316;8.670;2022-08-03T12:30:41;29.80;50.10
46816;DHT22;32787;53.316;8.670;2022-08-03T12:33:24;29.80;48.50
46816;DHT22;32787;53.316;8.670;2022-08-03T12:36:10;29.90;49.40
46816;DHT22;32787;53.316;8.670;2022-08-03T12:38:38;30.20;47.90
46816;DHT22;32787;53.316;8.670;2022-08-03T12:41:05;30.70;47.70
46816;DHT22;32787;53.316;8.670;2022-08-03T12:43:33;31.10;46.10
46816;DHT22;32787;53.316;8.670;2022-08-03T12:46:09;31.90;43.90
46816;DHT22;32787;53.316;8.670;2022-08-03T12:48:35;33.00;45.10
46816;DHT22;32787;53.316;8.670;2022-08-03T12:51:10;33.50;42.20
46816;DHT22;32787;53.316;8.670;2022-08-03T12:53:36;33.90;40.90
46816;DHT22;32787;53.316;8.670;2022-08-03T12:56:03;34.20;39.20
46816;DHT22;32787;53.316;8.670;2022-08-03T12:58:34;34.50;41.80
46816;DHT22;32787;53.316;8.670;2022-08-03T13:01:01;34.30;38.10
46816;DHT22;32787;53.316;8.670;2022-08-03T13:03:26;33.90;39.40
46816;DHT22;32787;53.316;8.670;2022-08-03T13:05:52;33.70;40.40
46816;DHT22;32787;53.316;8.670;2022-08-03T13:08:19;34.00;40.10
46816;DHT22;32787;53.316;8.670;2022-08-03T13:10:46;33.90;39.30
46816;DHT22;32787;53.316;8.670;2022-08-03T13:13:12;33.80;40.70
46816;DHT22;32787;53.316;8.670;2022-08-03T13:15:37;34.10;40.00
46816;DHT22;32787;53.316;8.670;2022-08-03T13:18:03;34.10;38.30
46816;DHT22;32787;53.316;8.670;2022-08-03T13:20:29;34.00;37.50
46816;DHT22;32787;53.316;8.670;2022-08-03T13:22:54;34.20;39.70
46816;DHT22;32787;53.316;8.670;2022-08-03T13:25:21;34.60;35.80
46816;DHT22;32787;53.316;8.670;2022-08-03T13:27:47;34.80;38.10
46816;DHT22;32787;53.316;8.670;2022-08-03T13:30:13;35.00;37.60
46816;DHT22;32787;53.316;8.670;2022-08-03T13:32:40;35.20;34.60
46816;DHT22;32787;53.316;8.670;2022-08-03T13:35:07;35.40;35.50
46816;DHT22;32787;53.316;8.670;2022-08-03T13:37:33;35.50;36.20
46816;DHT22;32787;53.316;8.670;2022-08-03T13:40:01;35.20;35.90
46816;DHT22;32787;53.316;8.670;2022-08-03T13:42:28;35.20;34.80
46816;DHT22;32787;53.316;8.670;2022-08-03T13:44:54;35.90;34.40
46816;DHT22;32787;53.316;8.670;2022-08-03T13:47:20;36.00;33.50
46816;DHT22;32787;53.316;8.670;2022-08-03T13:49:46;36.30;34.90
46816;DHT22;32787;53.316;8.670;2022-08-03T13:52:11;36.60;33.00
46816;DHT22;32787;53.316;8.670;2022-08-03T13:54:37;36.70;34.40
46816;DHT22;32787;53.316;8.670;2022-08-03T13:57:02;37.10;32.70
46816;DHT22;32787;53.316;8.670;2022-08-03T13:59:28;36.60;33.40
46816;DHT22;32787;53.316;8.670;2022-08-03T14:01:54;35.80;34.00
46816;DHT22;32787;53.316;8.670;2022-08-03T14:04:20;36.60;33.00
46816;DHT22;32787;53.316;8.670;2022-08-03T14:06:46;37.20;33.00
46816;DHT22;32787;53.316;8.670;2022-08-03T14:09:12;37.20;31.70
46816;DHT22;32787;53.316;8.670;2022-08-03T14:11:39;37.40;32.40
46816;DHT22;32787;53.316;8.670;2022-08-03T14:14:04;36.90;32.10
46816;DHT22;32787;53.316;8.670;2022-08-03T14:16:30;35.60;32.00
46816;DHT22;32787;53.316;8.670;2022-08-03T14:18:55;35.00;35.00
46816;DHT22;32787;53.316;8.670;2022-08-03T14:21:21;35.20;35.60
46816;DHT22;32787;53.316;8.670;2022-08-03T14:23:47;34.40;35.00
46816;DHT22;32787;53.316;8.670;2022-08-03T14:26:13;33.70;36.40
46816;DHT22;32787;53.316;8.670;2022-08-03T14:28:39;35.20;37.40
46816;DHT22;32787;53.316;8.670;2022-08-03T14:31:05;36.50;35.00
46816;DHT22;32787;53.316;8.670;2022-08-03T14:33:30;36.70;32.30
46816;DHT22;32787;53.316;8.670;2022-08-03T14:35:56;37.20;32.30
46816;DHT22;32787;53.316;8.670;2022-08-03T14:38:22;37.20;30.60
46816;DHT22;32787;53.316;8.670;2022-08-03T14:40:48;37.20;31.40
46816;DHT22;32787;53.316;8.670;2022-08-03T14:43:14;37.80;31.00
46816;DHT22;32787;53.316;8.670;2022-08-03T14:45:42;37.60;30.70
46816;DHT22;32787;53.316;8.670;2022-08-03T14:48:08;37.20;30.20
46816;DHT22;32787;53.316;8.670;2022-08-03T14:50:34;36.80;32.90
46816;DHT22;32787;53.316;8.670;2022-08-03T14:52:59;36.90;33.50
46816;DHT22;32787;53.316;8.670;2022-08-03T14:55:25;36.80;31.70
46816;DHT22;32787;53.316;8.670;2022-08-03T14:57:51;35.60;32.60
46816;DHT22;32787;53.316;8.670;2022-08-03T15:00:16;35.70;35.80
46816;DHT22;32787;53.316;8.670;2022-08-03T15:02:42;35.90;33.90
46816;DHT22;32787;53.316;8.670;2022-08-03T15:05:08;35.80;34.10
46816;DHT22;32787;53.316;8.670;2022-08-03T15:07:35;35.00;36.40
46816;DHT22;32787;53.316;8.670;2022-08-03T15:10:00;34.00;36.40
46816;DHT22;32787;53.316;8.670;2022-08-03T15:12:26;34.00;36.90
46816;DHT22;32787;53.316;8.670;2022-08-03T15:14:52;34.00;36.50
46816;DHT22;32787;53.316;8.670;2022-08-03T15:17:18;34.40;35.80
46816;DHT22;32787;53.316;8.670;2022-08-03T15:19:44;33.80;35.90
46816;DHT22;32787;53.316;8.670;2022-08-03T15:22:10;33.00;38.90
46816;DHT22;32787;53.316;8.670;2022-08-03T15:24:35;32.30;39.50
46816;DHT22;32787;53.316;8.670;2022-08-03T15:27:01;32.10;38.20
46816;DHT22;32787;53.316;8.670;2022-08-03T15:29:26;31.70;39.30
46816;DHT22;32787;53.316;8.670;2022-08-03T15:31:52;31.60;41.00
46816;DHT22;32787;53.316;8.670;2022-08-03T15:34:18;31.70;40.50
46816;DHT22;32787;53.316;8.670;2022-08-03T15:36:43;32.00;39.50
46816;DHT22;32787;53.316;8.670;2022-08-03T15:39:09;32.20;41.80
46816;DHT22;32787;53.316;8.670;2022-08-03T15:41:34;32.00;41.70
46816;DHT22;32787;53.316;8.670;2022-08-03T15:44:01;31.80;42.80
46816;DHT22;32787;53.316;8.670;2022-08-03T15:46:26;31.70;44.90
46816;DHT22;32787;53.316;8.670;2022-08-03T15:48:52;31.80;41.60
46816;DHT22;32787;53.316;8.670;2022-08-03T15:51:18;32.20;43.10
46816;DHT22;32787;53.316;8.670;2022-08-03T15:53:43;33.00;44.00
46816;DHT22;32787;53.316;8.670;2022-08-03T15:56:09;33.10;40.00
46816;DHT22;32787;53.316;8.670;2022-08-03T15:58:36;32.80;39.20
46816;DHT22;32787;53.316;8.670;2022-08-03T16:01:04;33.00;39.10
46816;DHT22;32787;53.316;8.670;2022-08-03T16:03:30;33.10;38.20
46816;DHT22;32787;53.316;8.670;2022-08-03T16:06:03;33.20;38.50
46816;DHT22;32787;53.316;8.670;2022-08-03T16:08:29;33.40;38.00
46816;DHT22;32787;53.316;8.670;2022-08-03T16:10:56;33.40;38.20
46816;DHT22;32787;53.316;8.670;2022-08-03T16:13:22;33.30;38.70
46816;DHT22;32787;53.316;8.670;2022-08-03T16:15:47;33.40;39.20